Time;durP1;ratioP1;P1;durP2;ratioP2;P2;SDS_P1;SDS_P2;PMS_P1;PMS_P2;Temp;Humidity;BMP_temperature;BMP_pressure;BME280_temperature;BME280_humidity;BME280_pressure;Samples;Min_cycle;Max_cycle;Signal;HPM_P1;HPM_P2
2022/07/18 00:01:57;;;;;;;0.60;0.53;;;24.70;69.30;;;;;;5139021;27;20555;-62
2022/07/18 00:04:28;;;;;;;1.07;1.07;;;24.70;67.80;;;;;;5123402;27;20477;-62
2022/07/18 00:06:59;;;;;;;1.00;0.60;;;24.60;68.20;;;;;;5124092;27;20513;-62
2022/07/18 00:09:30;;;;;;;2.47;1.43;;;24.60;68.40;;;;;;5128094;27;20462;-61
2022/07/18 00:12:05;;;;;;;1.03;0.60;;;24.60;67.90;;;;;;5127338;27;20517;-62
2022/07/18 00:14:37;;;;;;;0.73;0.73;;;24.40;66.40;;;;;;5126472;27;20498;-62
2022/07/18 00:17:09;;;;;;;0.60;0.50;;;24.40;66.50;;;;;;5126837;27;20511;-62
2022/07/18 00:19:41;;;;;;;0.70;0.50;;;24.40;64.40;;;;;;5119952;27;20487;-62
2022/07/18 00:22:11;;;;;;;0.50;0.50;;;24.50;65.70;;;;;;5126295;27;20478;-62
2022/07/18 00:24:42;;;;;;;0.50;0.50;;;24.70;65.60;;;;;;5127349;27;20449;-62
2022/07/18 00:27:13;;;;;;;0.57;0.57;;;24.50;64.20;;;;;;5125515;27;20468;-62
2022/07/18 00:29:45;;;;;;;0.80;0.80;;;24.40;67.00;;;;;;5125063;27;20443;-62
2022/07/18 00:32:17;;;;;;;0.60;0.40;;;24.40;67.60;;;;;;5127380;27;20440;-62
2022/07/18 00:34:51;;;;;;;0.50;0.50;;;24.20;67.30;;;;;;5127142;27;20544;-62
2022/07/18 00:37:22;;;;;;;0.70;0.60;;;24.10;68.40;;;;;;5126331;27;20464;-62
2022/07/18 00:39:54;;;;;;;1.20;1.10;;;24.20;68.60;;;;;;5129404;27;20445;-62
2022/07/18 00:42:25;;;;;;;0.40;0.40;;;24.40;68.20;;;;;;5140879;27;20429;-61
2022/07/18 00:44:57;;;;;;;0.60;0.60;;;24.50;65.50;;;;;;5143147;27;20443;-62
2022/07/18 00:47:30;;;;;;;0.60;0.60;;;24.50;66.40;;;;;;5144717;27;20444;-63
2022/07/18 00:50:03;;;;;;;0.90;0.70;;;24.60;68.10;;;;;;5163294;27;20517;-60
2022/07/18 00:52:34;;;;;;;0.57;0.57;;;24.70;69.00;;;;;;5150177;27;20448;-62
2022/07/18 00:55:06;;;;;;;2.40;0.50;;;24.80;65.30;;;;;;5139138;27;20484;-63
2022/07/18 00:57:38;;;;;;;0.70;0.50;;;24.60;62.10;;;;;;5140134;27;20464;-63
2022/07/18 01:03:01;;;;;;;0.80;0.60;;;24.50;64.50;;;;;;5163303;27;20480;-63
2022/07/18 01:05:32;;;;;;;0.70;0.50;;;24.50;64.40;;;;;;5134059;27;20457;-62
2022/07/18 01:08:03;;;;;;;0.50;0.50;;;24.20;63.80;;;;;;5157388;27;20463;-63
2022/07/18 01:10:34;;;;;;;0.70;0.63;;;23.90;65.40;;;;;;5150957;27;20547;-63
2022/07/18 01:13:04;;;;;;;0.70;0.70;;;23.80;65.60;;;;;;5130339;27;20510;-63
2022/07/18 01:15:36;;;;;;;0.70;0.70;;;23.50;65.40;;;;;;5139813;27;20453;-62
2022/07/18 01:18:08;;;;;;;1.37;0.67;;;23.40;67.10;;;;;;5141445;27;20495;-62
2022/07/18 01:20:41;;;;;;;0.83;0.70;;;23.20;67.60;;;;;;5139853;27;20460;-62
2022/07/18 01:23:12;;;;;;;0.43;0.43;;;22.90;69.50;;;;;;5139274;27;20459;-62
2022/07/18 01:25:43;;;;;;;0.50;0.50;;;22.70;71.80;;;;;;5150602;27;20482;-63
2022/07/18 01:28:13;;;;;;;0.80;0.73;;;22.50;72.50;;;;;;5147415;27;20464;-62
2022/07/18 01:30:44;;;;;;;1.80;0.73;;;22.40;72.90;;;;;;5135894;27;21410;-63
2022/07/18 01:33:15;;;;;;;0.50;0.50;;;22.30;73.00;;;;;;5132740;27;20463;-64
2022/07/18 01:35:48;;;;;;;0.50;0.50;;;22.20;73.40;;;;;;5139926;27;20459;-64
2022/07/18 01:38:19;;;;;;;1.30;0.93;;;22.10;74.00;;;;;;5141394;27;20487;-66
2022/07/18 01:40:50;;;;;;;0.80;0.80;;;22.20;74.70;;;;;;5142524;27;20459;-66
2022/07/18 01:43:27;;;;;;;0.80;0.80;;;22.20;74.60;;;;;;5136075;27;20460;-65
2022/07/18 01:45:58;;;;;;;0.67;0.67;;;22.10;74.80;;;;;;5144362;27;20448;-65
2022/07/18 01:48:29;;;;;;;0.80;0.80;;;22.10;73.40;;;;;;5137375;27;20466;-65
2022/07/18 01:51:01;;;;;;;0.70;0.70;;;22.00;74.00;;;;;;5151257;27;20460;-63
2022/07/18 01:53:32;;;;;;;0.60;0.47;;;21.90;72.80;;;;;;5134176;27;20456;-65
2022/07/18 01:56:03;;;;;;;0.70;0.70;;;21.90;72.40;;;;;;5125562;27;20436;-66
2022/07/18 01:58:34;;;;;;;0.90;0.70;;;21.90;72.70;;;;;;5128419;27;20481;-65
2022/07/18 02:01:05;;;;;;;0.60;0.60;;;21.90;73.00;;;;;;5130350;27;20454;-64
2022/07/18 02:03:36;;;;;;;0.73;0.73;;;21.90;74.50;;;;;;5124168;27;20485;-64
2022/07/18 02:06:09;;;;;;;0.90;0.57;;;21.90;74.80;;;;;;5125941;27;20464;-65
2022/07/18 02:08:40;;;;;;;0.90;0.90;;;21.90;74.20;;;;;;5126532;27;20464;-63
2022/07/18 02:11:11;;;;;;;0.73;0.70;;;21.80;74.00;;;;;;5127815;27;20582;-64
2022/07/18 02:13:41;;;;;;;1.13;0.60;;;21.70;75.30;;;;;;5128481;27;20524;-64
2022/07/18 02:16:12;;;;;;;1.10;0.93;;;21.60;76.00;;;;;;5124861;27;20433;-64
2022/07/18 02:18:43;;;;;;;1.03;0.93;;;21.60;76.00;;;;;;5128692;27;20515;-64
2022/07/18 02:21:16;;;;;;;0.90;0.80;;;21.60;76.80;;;;;;5123528;27;20465;-65
2022/07/18 02:23:47;;;;;;;0.97;0.87;;;21.60;77.20;;;;;;5123249;27;20555;-64
2022/07/18 02:26:21;;;;;;;0.60;0.60;;;21.70;75.90;;;;;;5128459;27;20461;-64
2022/07/18 02:28:52;;;;;;;1.13;0.87;;;21.60;75.20;;;;;;5128580;27;22289;-64
2022/07/18 02:31:23;;;;;;;0.80;0.70;;;21.70;75.30;;;;;;5122981;27;20488;-65
2022/07/18 02:33:54;;;;;;;0.70;0.70;;;21.70;74.80;;;;;;5154138;27;20491;-64
2022/07/18 02:36:26;;;;;;;0.87;0.87;;;21.60;76.00;;;;;;5153732;27;20465;-65
2022/07/18 02:38:58;;;;;;;3.03;0.90;;;21.60;76.30;;;;;;5145265;27;20485;-66
2022/07/18 02:41:30;;;;;;;0.70;0.60;;;21.60;76.60;;;;;;5131507;27;20883;-65
2022/07/18 02:44:01;;;;;;;1.03;0.80;;;21.50;77.10;;;;;;5141817;27;20452;-65
2022/07/18 02:46:32;;;;;;;0.80;0.80;;;21.40;78.60;;;;;;5133202;27;20533;-66
2022/07/18 02:49:03;;;;;;;0.60;0.60;;;21.30;78.00;;;;;;5135765;27;20470;-65
2022/07/18 02:51:36;;;;;;;0.77;0.70;;;21.30;78.10;;;;;;5140263;27;20531;-65
2022/07/18 02:54:06;;;;;;;0.80;0.77;;;21.30;78.20;;;;;;5136883;27;20457;-66
2022/07/18 02:56:42;;;;;;;0.80;0.80;;;21.40;78.30;;;;;;5141322;27;20456;-64
2022/07/18 02:59:13;;;;;;;0.80;0.80;;;21.50;77.90;;;;;;5137330;27;20484;-65
2022/07/18 03:01:44;;;;;;;1.00;0.90;;;21.40;78.20;;;;;;5142844;27;20445;-65
2022/07/18 03:04:15;;;;;;;0.70;0.70;;;21.50;77.60;;;;;;5130961;27;20620;-65
2022/07/18 03:06:48;;;;;;;1.53;1.20;;;21.60;77.00;;;;;;5135247;27;21177;-65
2022/07/18 03:09:22;;;;;;;0.80;0.80;;;21.50;76.70;;;;;;5141198;27;20484;-65
2022/07/18 03:11:53;;;;;;;0.63;0.60;;;21.50;76.40;;;;;;5152191;27;20820;-65
2022/07/18 03:14:24;;;;;;;0.60;0.60;;;21.50;76.90;;;;;;5149003;27;20580;-65
2022/07/18 03:16:55;;;;;;;0.70;0.63;;;21.60;75.70;;;;;;5145013;27;20455;-65
2022/07/18 03:19:26;;;;;;;0.93;0.80;;;21.50;75.80;;;;;;5154573;27;20485;-64
2022/07/18 03:21:58;;;;;;;1.43;0.40;;;21.30;76.40;;;;;;5142988;27;20464;-64
2022/07/18 03:24:32;;;;;;;0.60;0.60;;;21.30;77.10;;;;;;5131779;27;20523;-64
2022/07/18 03:27:05;;;;;;;0.60;0.50;;;21.20;77.70;;;;;;5157681;27;20456;-64
2022/07/18 03:29:36;;;;;;;1.03;0.77;;;21.10;77.30;;;;;;5138807;27;20461;-64
2022/07/18 03:32:07;;;;;;;0.50;0.50;;;20.90;78.10;;;;;;5138692;27;20429;-64
2022/07/18 03:34:38;;;;;;;1.10;0.80;;;20.80;78.70;;;;;;5139444;27;20440;-63
2022/07/18 03:37:10;;;;;;;1.00;0.87;;;20.80;79.10;;;;;;5140264;27;20812;-64
2022/07/18 03:39:41;;;;;;;0.60;0.60;;;20.60;79.20;;;;;;5152675;27;20511;-65
2022/07/18 03:42:12;;;;;;;0.60;0.50;;;20.40;80.10;;;;;;5127552;27;20463;-63
2022/07/18 03:44:43;;;;;;;0.60;0.50;;;20.30;80.80;;;;;;5127080;27;20437;-63
2022/07/18 03:47:17;;;;;;;0.70;0.60;;;20.20;80.90;;;;;;5129150;27;20517;-66
2022/07/18 03:49:47;;;;;;;1.00;0.73;;;20.10;81.90;;;;;;5129380;27;20435;-63
2022/07/18 03:52:20;;;;;;;1.00;0.90;;;19.90;82.60;;;;;;5125623;27;20489;-66
2022/07/18 03:54:51;;;;;;;0.73;0.73;;;19.90;83.80;;;;;;5127051;27;20469;-64
2022/07/18 03:57:22;;;;;;;1.00;0.80;;;19.80;83.80;;;;;;5123634;27;20439;-63
2022/07/18 03:59:52;;;;;;;0.70;0.70;;;19.70;84.10;;;;;;5126324;27;20496;-64
2022/07/18 04:02:23;;;;;;;1.07;0.70;;;19.70;84.30;;;;;;5125862;27;20475;-63
2022/07/18 04:04:54;;;;;;;0.70;0.60;;;19.60;84.70;;;;;;5124076;27;20465;-62
2022/07/18 04:07:27;;;;;;;0.93;0.73;;;19.60;84.60;;;;;;5125695;27;20476;-65
2022/07/18 04:09:57;;;;;;;0.60;0.60;;;19.50;85.20;;;;;;5125775;27;20462;-64
2022/07/18 04:12:28;;;;;;;0.90;0.87;;;19.50;85.60;;;;;;5125016;27;20436;-66
2022/07/18 04:14:59;;;;;;;0.70;0.60;;;19.40;86.10;;;;;;5125458;27;20453;-65
2022/07/18 04:17:30;;;;;;;1.33;0.97;;;19.40;85.90;;;;;;5124661;27;20463;-64
2022/07/18 04:20:01;;;;;;;0.80;0.80;;;19.40;86.00;;;;;;5134210;27;20471;-65
2022/07/18 04:22:33;;;;;;;0.73;0.63;;;19.40;86.00;;;;;;5145308;27;20440;-65
2022/07/18 04:25:04;;;;;;;1.27;1.03;;;19.30;86.50;;;;;;5128195;27;20458;-65
2022/07/18 04:27:35;;;;;;;0.80;0.70;;;19.30;86.90;;;;;;5147807;27;20447;-66
2022/07/18 04:30:07;;;;;;;1.80;0.60;;;19.20;87.50;;;;;;5129703;27;20431;-65
2022/07/18 04:32:38;;;;;;;0.87;0.80;;;19.20;88.10;;;;;;5128994;27;20481;-66
2022/07/18 04:35:11;;;;;;;1.00;0.90;;;19.20;88.50;;;;;;5136679;27;20461;-64
2022/07/18 04:37:44;;;;;;;0.80;0.80;;;19.00;89.10;;;;;;5129081;27;21054;-65
2022/07/18 04:40:15;;;;;;;1.20;0.90;;;18.90;89.90;;;;;;5142178;27;20522;-64
2022/07/18 04:42:46;;;;;;;1.20;1.10;;;18.80;90.20;;;;;;5142165;27;20475;-64
2022/07/18 04:45:21;;;;;;;0.97;0.93;;;18.70;90.40;;;;;;5134737;27;20452;-63
2022/07/18 04:47:54;;;;;;;1.23;0.90;;;18.60;90.60;;;;;;5139516;27;20464;-64
2022/07/18 04:50:26;;;;;;;0.93;0.73;;;18.60;90.80;;;;;;5138826;27;20435;-64
2022/07/18 04:52:59;;;;;;;0.97;0.87;;;18.50;91.00;;;;;;5140140;27;20952;-64
2022/07/18 04:55:30;;;;;;;0.77;0.63;;;18.50;91.20;;;;;;5131629;27;20465;-63
2022/07/18 04:58:01;;;;;;;1.40;1.10;;;18.40;91.50;;;;;;5145857;27;20445;-63
2022/07/18 05:00:31;;;;;;;1.00;0.70;;;18.30;92.00;;;;;;5131749;27;20459;-62
2022/07/18 05:03:02;;;;;;;2.23;1.13;;;18.30;92.00;;;;;;5143517;27;20483;-62
2022/07/18 05:05:33;;;;;;;1.03;0.80;;;18.20;92.30;;;;;;5139454;27;20440;-62
2022/07/18 05:08:07;;;;;;;1.10;1.00;;;18.10;92.50;;;;;;5138968;27;20468;-62
2022/07/18 05:10:38;;;;;;;1.17;1.03;;;18.10;92.90;;;;;;5139632;27;20468;-62
2022/07/18 05:13:09;;;;;;;0.70;0.70;;;18.00;93.20;;;;;;5131203;27;20440;-63
2022/07/18 05:15:40;;;;;;;1.20;1.00;;;18.00;93.50;;;;;;5149769;27;20455;-63
2022/07/18 05:18:13;;;;;;;1.40;1.30;;;18.00;93.80;;;;;;5153122;27;20456;-62
2022/07/18 05:20:44;;;;;;;0.70;0.70;;;17.80;94.30;;;;;;5159174;27;20454;-62
2022/07/18 05:23:18;;;;;;;1.53;1.00;;;17.80;94.60;;;;;;5148007;27;20456;-62
2022/07/18 05:25:48;;;;;;;1.10;0.90;;;17.80;94.70;;;;;;5141474;27;20539;-62
2022/07/18 05:28:19;;;;;;;1.13;0.87;;;17.70;95.00;;;;;;5139433;27;20443;-62
2022/07/18 05:30:51;;;;;;;1.90;0.90;;;17.60;95.40;;;;;;5149263;27;20457;-62
2022/07/18 05:33:21;;;;;;;1.20;1.10;;;17.60;95.60;;;;;;5132450;27;20517;-62
2022/07/18 05:35:52;;;;;;;1.63;0.83;;;17.50;96.10;;;;;;5129496;27;20844;-62
2022/07/18 05:38:25;;;;;;;0.93;0.80;;;17.40;96.40;;;;;;5134096;27;20472;-62
2022/07/18 05:40:56;;;;;;;0.90;0.90;;;17.40;96.60;;;;;;5126762;27;20491;-62
2022/07/18 05:43:26;;;;;;;1.53;0.97;;;17.40;96.60;;;;;;5129607;27;20423;-61
2022/07/18 05:46:00;;;;;;;1.20;1.10;;;17.30;97.00;;;;;;5129962;27;20517;-62
2022/07/18 05:48:33;;;;;;;1.03;0.93;;;17.30;97.20;;;;;;5130150;27;20440;-63
2022/07/18 05:51:04;;;;;;;1.63;1.20;;;17.20;97.50;;;;;;5127456;27;20424;-62
2022/07/18 05:53:39;;;;;;;1.10;1.00;;;17.20;97.90;;;;;;5129504;27;20813;-63
2022/07/18 05:56:11;;;;;;;1.43;1.33;;;17.20;98.20;;;;;;5128977;27;20448;-63
2022/07/18 05:58:42;;;;;;;1.17;1.07;;;17.00;99.00;;;;;;5133503;27;20441;-62
2022/07/18 06:01:19;;;;;;;3.23;1.10;;;17.00;99.30;;;;;;5130796;27;20512;-62
2022/07/18 06:03:50;;;;;;;1.30;1.20;;;17.00;99.60;;;;;;5129493;27;20553;-62
2022/07/18 06:06:24;;;;;;;1.23;1.03;;;16.90;99.90;;;;;;5129615;27;20517;-63
2022/07/18 06:08:57;;;;;;;1.33;1.23;;;16.80;99.90;;;;;;5132622;27;20918;-63
2022/07/18 06:11:28;;;;;;;1.53;1.10;;;16.80;99.90;;;;;;5140455;27;20458;-63
2022/07/18 06:14:02;;;;;;;2.60;0.90;;;16.70;99.90;;;;;;5141378;27;20460;-63
2022/07/18 06:16:33;;;;;;;1.20;1.10;;;16.70;99.90;;;;;;5148535;27;20488;-64
2022/07/18 06:19:05;;;;;;;4.30;1.10;;;16.70;99.90;;;;;;5142325;27;20456;-61
2022/07/18 06:21:35;;;;;;;1.53;0.90;;;16.70;99.90;;;;;;5139678;27;20588;-64
2022/07/18 06:24:08;;;;;;;1.40;1.20;;;16.70;99.90;;;;;;5136288;27;20492;-63
2022/07/18 06:26:39;;;;;;;1.60;1.10;;;16.60;99.90;;;;;;5139764;27;20467;-63
2022/07/18 06:29:11;;;;;;;1.73;1.23;;;16.60;99.90;;;;;;5138385;27;20465;-62
2022/07/18 06:31:42;;;;;;;1.07;0.97;;;16.60;99.90;;;;;;5141969;27;20450;-65
2022/07/18 06:34:17;;;;;;;1.30;0.93;;;16.50;99.90;;;;;;5129507;27;20996;-63
2022/07/18 06:36:51;;;;;;;0.70;0.70;;;16.50;99.90;;;;;;5134704;27;20459;-63
2022/07/18 06:39:23;;;;;;;1.80;1.33;;;16.40;99.90;;;;;;5139417;27;20472;-63
2022/07/18 06:41:54;;;;;;;1.23;1.03;;;16.40;99.90;;;;;;5140424;27;20467;-63
2022/07/18 06:44:26;;;;;;;1.20;1.10;;;16.40;99.90;;;;;;5136383;27;20500;-63
2022/07/18 06:46:59;;;;;;;1.90;1.43;;;16.40;99.90;;;;;;5130459;27;20540;-62
2022/07/18 06:49:34;;;;;;;1.30;1.20;;;16.40;99.90;;;;;;5153192;27;20454;-61
2022/07/18 06:52:06;;;;;;;1.73;1.37;;;16.30;99.90;;;;;;5144825;27;20452;-61
2022/07/18 06:54:39;;;;;;;0.93;0.73;;;16.30;99.90;;;;;;5144956;27;20501;-61
2022/07/18 06:57:10;;;;;;;0.90;0.80;;;16.30;99.90;;;;;;5150800;27;20449;-62
2022/07/18 06:59:46;;;;;;;1.10;1.07;;;16.30;99.90;;;;;;5134762;27;20486;-61
2022/07/18 07:02:29;;;;;;;1.50;0.93;;;16.20;99.90;;;;;;5141945;27;20503;-63
2022/07/18 07:05:00;;;;;;;2.00;0.70;;;16.20;99.90;;;;;;5140878;27;20449;-62
2022/07/18 07:07:31;;;;;;;0.97;0.87;;;16.10;99.90;;;;;;5141019;27;20464;-63
2022/07/18 07:10:03;;;;;;;0.93;0.83;;;16.00;99.90;;;;;;5139116;27;20463;-61
2022/07/18 07:12:51;;;;;;;1.37;1.27;;;16.00;99.90;;;;;;5134400;27;20453;-63
2022/07/18 07:15:24;;;;;;;1.97;1.53;;;16.00;99.90;;;;;;5141899;27;20464;-63
2022/07/18 07:17:55;;;;;;;1.50;1.17;;;15.90;99.90;;;;;;5146888;27;20455;-63
2022/07/18 07:20:26;;;;;;;0.80;0.80;;;15.90;99.90;;;;;;5131089;27;20462;-63
2022/07/18 07:22:58;;;;;;;2.00;1.40;;;15.80;99.90;;;;;;5127811;27;20497;-63
2022/07/18 07:25:31;;;;;;;1.23;0.83;;;15.80;99.90;;;;;;5125180;27;20440;-63
2022/07/18 07:28:07;;;;;;;1.20;0.93;;;15.70;99.90;;;;;;5127191;27;20465;-63
2022/07/18 07:30:38;;;;;;;1.30;1.20;;;15.70;99.90;;;;;;5130432;27;20456;-63
2022/07/18 07:33:10;;;;;;;1.50;1.37;;;15.70;99.90;;;;;;5130217;27;20466;-63
2022/07/18 07:35:41;;;;;;;1.47;1.37;;;15.70;99.90;;;;;;5128424;27;20478;-63
2022/07/18 07:38:19;;;;;;;2.13;1.43;;;15.70;99.90;;;;;;5123553;27;20438;-63
2022/07/18 07:40:52;;;;;;;2.27;1.30;;;15.70;99.90;;;;;;5125036;27;20496;-63
2022/07/18 07:43:23;;;;;;;1.30;1.03;;;15.60;99.90;;;;;;5124649;27;20485;-63
2022/07/18 07:45:55;;;;;;;2.40;1.53;;;15.50;99.90;;;;;;5131405;27;20465;-63
2022/07/18 07:48:27;;;;;;;1.37;1.27;;;15.50;99.90;;;;;;5125874;27;20465;-63
2022/07/18 07:50:58;;;;;;;1.40;1.30;;;15.50;99.90;;;;;;5128014;27;20445;-63
2022/07/18 07:53:29;;;;;;;3.03;1.50;;;15.50;99.90;;;;;;5123611;27;20457;-63
2022/07/18 07:56:01;;;;;;;1.33;1.10;;;15.50;99.90;;;;;;5124231;27;20964;-63
2022/07/18 07:58:38;;;;;;;1.80;1.37;;;15.50;99.90;;;;;;5125531;27;20465;-63
2022/07/18 08:01:11;;;;;;;1.50;1.40;;;15.50;99.90;;;;;;5125402;27;20466;-63
2022/07/18 08:03:44;;;;;;;1.90;1.53;;;15.50;99.90;;;;;;5130765;27;20564;-63
2022/07/18 08:06:15;;;;;;;2.93;1.50;;;15.50;99.90;;;;;;5142238;27;20455;-63
2022/07/18 08:08:46;;;;;;;1.20;1.10;;;15.40;99.90;;;;;;5140945;27;20919;-63
2022/07/18 08:11:18;;;;;;;1.00;0.90;;;15.30;99.90;;;;;;5141471;27;20484;-63
2022/07/18 08:14:00;;;;;;;1.53;1.43;;;15.20;99.90;;;;;;5121790;28;20465;-63
2022/07/18 08:16:31;;;;;;;2.20;1.90;;;15.10;99.90;;;;;;5134386;27;20556;-63
2022/07/18 08:19:03;;;;;;;1.50;1.20;;;15.10;99.90;;;;;;5131446;27;20520;-63
2022/07/18 08:21:36;;;;;;;2.03;1.33;;;15.00;99.90;;;;;;5136928;27;21098;-63
2022/07/18 08:24:07;;;;;;;1.37;1.27;;;15.00;99.90;;;;;;5134867;27;20461;-63
2022/07/18 08:26:42;;;;;;;1.10;1.00;;;15.00;99.90;;;;;;5136965;27;20468;-62
2022/07/18 08:29:16;;;;;;;2.13;1.57;;;15.00;99.90;;;;;;5130706;27;20490;-62
2022/07/18 08:31:46;;;;;;;1.10;1.00;;;15.00;99.90;;;;;;5143667;27;20477;-63
2022/07/18 08:34:20;;;;;;;1.20;1.10;;;15.00;99.90;;;;;;5128822;27;20586;-63
2022/07/18 08:36:51;;;;;;;1.60;1.37;;;14.90;99.90;;;;;;5144751;27;20472;-63
2022/07/18 08:39:21;;;;;;;2.40;1.50;;;14.80;99.90;;;;;;5141494;27;20800;-63
2022/07/18 08:41:59;;;;;;;1.80;1.30;;;14.80;99.90;;;;;;5138437;27;20467;-63
2022/07/18 08:44:35;;;;;;;1.23;1.13;;;14.70;99.90;;;;;;5149746;27;20455;-63
2022/07/18 08:47:13;;;;;;;1.43;1.30;;;14.70;99.90;;;;;;5126934;27;20461;-63
2022/07/18 08:49:47;;;;;;;2.00;1.30;;;14.70;99.90;;;;;;5141439;27;20492;-63
2022/07/18 08:52:21;;;;;;;1.37;1.00;;;14.70;99.90;;;;;;5132319;27;21002;-63
2022/07/18 08:55:07;;;;;;;2.73;1.03;;;14.60;99.90;;;;;;5141780;27;20457;-63
2022/07/18 08:57:57;;;;;;;1.97;1.23;;;14.50;99.90;;;;;;5142678;27;20453;-63
2022/07/18 09:00:50;;;;;;;1.70;1.40;;;14.50;99.90;;;;;;5137406;27;20451;-63
2022/07/18 09:03:29;;;;;;;1.37;1.27;;;14.40;99.90;;;;;;5149350;27;20536;-62
2022/07/18 09:06:08;;;;;;;2.00;1.20;;;14.40;99.90;;;;;;5135064;27;20477;-62
2022/07/18 09:08:41;;;;;;;1.60;1.50;;;14.40;99.90;;;;;;5145935;27;20919;-63
2022/07/18 09:11:13;;;;;;;1.70;1.50;;;14.40;99.90;;;;;;5145786;27;20948;-63
2022/07/18 09:14:06;;;;;;;2.33;2.20;;;14.30;99.90;;;;;;5139935;27;20497;-62
2022/07/18 09:16:39;;;;;;;1.30;1.20;;;14.30;99.90;;;;;;5146290;27;20461;-63
2022/07/18 09:19:10;;;;;;;1.73;1.33;;;14.20;99.90;;;;;;5132047;27;20464;-63
2022/07/18 09:21:44;;;;;;;1.93;1.40;;;14.20;99.90;;;;;;5129421;27;20505;-63
2022/07/18 09:24:15;;;;;;;1.90;1.67;;;14.20;99.90;;;;;;5130481;27;20496;-62
2022/07/18 09:26:50;;;;;;;2.13;1.67;;;14.20;99.90;;;;;;5128074;27;20563;-62
2022/07/18 09:29:22;;;;;;;1.27;1.13;;;14.20;99.90;;;;;;5127383;27;20476;-63
2022/07/18 09:32:01;;;;;;;1.30;1.20;;;14.20;99.90;;;;;;5127626;27;20818;-62
2022/07/18 09:34:41;;;;;;;1.50;1.40;;;14.10;99.90;;;;;;5127336;27;20458;-62
2022/07/18 09:37:16;;;;;;;1.63;1.50;;;14.10;99.90;;;;;;5130472;27;20965;-63
2022/07/18 09:39:49;;;;;;;2.07;1.50;;;14.10;99.90;;;;;;5123797;27;20460;-62
2022/07/18 09:42:20;;;;;;;1.00;1.00;;;14.00;99.90;;;;;;5127412;27;20461;-62
2022/07/18 09:45:01;;;;;;;1.67;1.50;;;14.00;99.90;;;;;;5129432;27;20484;-62
2022/07/18 09:47:32;;;;;;;1.23;1.10;;;14.00;99.90;;;;;;5127360;27;20456;-62
2022/07/18 09:50:05;;;;;;;1.87;1.63;;;14.00;99.90;;;;;;5128317;27;20489;-63
2022/07/18 09:52:39;;;;;;;1.10;1.00;;;14.00;99.90;;;;;;5130793;27;20522;-62
2022/07/18 09:55:13;;;;;;;1.40;1.30;;;13.90;99.90;;;;;;5129391;27;20472;-62
2022/07/18 09:57:44;;;;;;;1.63;1.40;;;13.90;99.90;;;;;;5130166;27;20485;-62
2022/07/18 10:00:17;;;;;;;2.07;1.27;;;13.80;99.90;;;;;;5137272;27;20456;-62
2022/07/18 10:02:48;;;;;;;1.70;1.50;;;13.90;99.90;;;;;;5141320;27;20484;-62
2022/07/18 10:05:24;;;;;;;1.43;1.30;;;13.80;99.90;;;;;;5143852;27;20776;-63
2022/07/18 10:07:57;;;;;;;1.60;1.47;;;13.80;99.90;;;;;;5134931;27;20456;-63
2022/07/18 10:10:29;;;;;;;1.30;1.10;;;13.70;99.90;;;;;;5138591;27;20468;-62
2022/07/18 10:13:02;;;;;;;1.47;1.37;;;13.70;99.90;;;;;;5149467;27;20471;-63
2022/07/18 10:15:36;;;;;;;1.80;1.10;;;13.60;99.90;;;;;;5145904;27;20457;-63
2022/07/18 10:18:14;;;;;;;1.57;1.20;;;13.60;99.90;;;;;;5137716;27;20457;-62
2022/07/18 10:20:52;;;;;;;1.40;1.30;;;13.60;99.90;;;;;;5144579;27;20475;-62
2022/07/18 10:23:36;;;;;;;1.70;1.40;;;13.60;99.90;;;;;;5144224;27;20959;-63
2022/07/18 10:26:15;;;;;;;3.20;2.00;;;13.60;99.90;;;;;;5129852;27;20488;-63
2022/07/18 10:29:11;;;;;;;1.53;1.40;;;13.50;99.90;;;;;;5142641;27;20487;-63
2022/07/18 10:32:02;;;;;;;2.00;1.90;;;13.50;99.90;;;;;;5154413;27;20452;-62
2022/07/18 10:34:36;;;;;;;0.83;0.83;;;13.40;99.90;;;;;;5130286;27;20456;-62
2022/07/18 10:37:13;;;;;;;1.93;1.60;;;13.40;99.90;;;;;;5136851;27;20629;-62
2022/07/18 10:39:45;;;;;;;1.33;1.23;;;13.30;99.90;;;;;;5138981;27;20459;-62
2022/07/18 10:42:24;;;;;;;1.67;1.37;;;13.20;99.90;;;;;;5140554;27;20544;-62
2022/07/18 10:44:57;;;;;;;1.83;1.40;;;13.30;99.90;;;;;;5139401;27;20860;-62
2022/07/18 10:47:32;;;;;;;1.90;1.43;;;13.30;99.90;;;;;;5131461;27;20765;-62
2022/07/18 10:50:10;;;;;;;2.43;1.33;;;13.20;99.90;;;;;;5140912;27;20464;-62
2022/07/18 10:53:12;;;;;;;1.40;1.30;;;13.20;99.90;;;;;;5143861;27;20537;-62
2022/07/18 10:55:53;;;;;;;1.57;1.17;;;13.10;99.90;;;;;;5133956;27;20487;-62
2022/07/18 10:58:24;;;;;;;1.93;1.50;;;13.10;99.90;;;;;;5145407;27;20474;-62
2022/07/18 11:01:07;;;;;;;2.20;1.50;;;13.00;99.90;;;;;;5143448;27;20460;-63
2022/07/18 11:03:40;;;;;;;3.33;1.30;;;13.10;99.90;;;;;;5143779;27;20599;-62
2022/07/18 11:06:13;;;;;;;1.80;1.37;;;13.10;99.90;;;;;;5141200;27;20469;-62
2022/07/18 11:08:44;;;;;;;3.60;1.43;;;13.10;99.90;;;;;;5123129;27;20454;-63
2022/07/18 11:11:16;;;;;;;1.70;1.60;;;13.10;99.90;;;;;;5139509;27;20429;-62
2022/07/18 11:13:51;;;;;;;2.07;1.50;;;13.00;99.90;;;;;;5143209;27;20464;-62
2022/07/18 11:16:27;;;;;;;2.10;1.50;;;13.00;99.90;;;;;;5143289;27;20464;-62
2022/07/18 11:19:33;;;;;;;1.77;1.40;;;13.00;99.90;;;;;;5139744;27;20475;-62
2022/07/18 11:22:09;;;;;;;2.10;1.40;;;13.00;99.90;;;;;;5126518;27;20456;-62
2022/07/18 11:24:40;;;;;;;2.03;1.83;;;12.90;99.90;;;;;;5127431;27;20492;-62
2022/07/18 11:27:11;;;;;;;2.70;2.03;;;12.80;99.90;;;;;;5130117;27;20477;-62
2022/07/18 11:29:44;;;;;;;1.50;1.40;;;12.80;99.90;;;;;;5126288;27;20452;-62
2022/07/18 11:32:23;;;;;;;1.70;1.23;;;12.70;99.90;;;;;;5119786;27;20701;-61
2022/07/18 11:34:55;;;;;;;1.80;1.60;;;12.60;99.90;;;;;;5128169;27;20566;-62
2022/07/18 11:37:26;;;;;;;1.40;1.30;;;12.60;99.90;;;;;;5122344;27;20475;-62
2022/07/18 11:40:06;;;;;;;1.63;1.40;;;12.70;99.90;;;;;;5127155;27;20474;-62
2022/07/18 11:42:38;;;;;;;1.63;1.53;;;12.70;99.90;;;;;;5126654;27;20460;-62
2022/07/18 11:45:13;;;;;;;2.50;1.60;;;12.70;99.90;;;;;;5129801;27;20496;-62
2022/07/18 11:47:49;;;;;;;2.60;1.70;;;12.60;99.90;;;;;;5123058;27;20584;-62
2022/07/18 11:50:36;;;;;;;1.63;1.43;;;12.60;99.90;;;;;;5127436;27;20461;-62
2022/07/18 11:53:06;;;;;;;4.93;1.60;;;12.60;99.90;;;;;;5124914;27;20649;-62
2022/07/18 11:55:39;;;;;;;2.77;1.63;;;12.60;99.90;;;;;;5131341;27;20470;-62
2022/07/18 11:58:16;;;;;;;2.40;2.00;;;12.60;99.90;;;;;;5123781;27;20585;-62
2022/07/18 12:00:51;;;;;;;2.10;1.53;;;12.50;99.90;;;;;;5129117;27;20456;-62
2022/07/18 12:03:23;;;;;;;2.10;1.90;;;12.60;99.90;;;;;;5140803;27;20497;-62
2022/07/18 12:05:56;;;;;;;2.10;2.00;;;12.70;99.90;;;;;;5128840;27;20457;-62
2022/07/18 12:08:35;;;;;;;2.13;1.83;;;12.70;99.90;;;;;;5145031;27;20468;-62
2022/07/18 12:11:17;;;;;;;1.80;1.67;;;12.60;99.90;;;;;;5132249;27;20449;-62
2022/07/18 12:13:54;;;;;;;4.10;2.30;;;12.60;99.90;;;;;;5142336;27;20855;-62
2022/07/18 12:16:35;;;;;;;2.60;1.77;;;12.50;99.90;;;;;;5128475;27;20477;-62
2022/07/18 12:19:10;;;;;;;2.03;1.83;;;12.50;99.90;;;;;;5127773;27;20460;-62
2022/07/18 12:21:53;;;;;;;2.40;2.20;;;12.50;99.90;;;;;;5135101;27;20458;-62
2022/07/18 12:24:38;;;;;;;1.70;1.60;;;12.50;99.90;;;;;;5132154;27;20487;-62
2022/07/18 12:27:19;;;;;;;2.20;2.00;;;12.50;99.90;;;;;;5139632;27;20461;-62
2022/07/18 12:30:09;;;;;;;1.67;1.57;;;12.50;99.90;;;;;;5153355;27;20452;-62
2022/07/18 12:32:54;;;;;;;2.10;1.60;;;12.40;99.90;;;;;;5129164;27;20453;-62
2022/07/18 12:35:26;;;;;;;2.90;2.07;;;12.50;99.90;;;;;;5139670;27;20587;-62
2022/07/18 12:38:01;;;;;;;1.60;1.47;;;12.40;99.90;;;;;;5137670;27;20453;-62
2022/07/18 12:40:44;;;;;;;2.70;2.10;;;12.40;99.90;;;;;;5137689;27;20604;-62
2022/07/18 12:43:23;;;;;;;1.80;1.57;;;12.40;99.90;;;;;;5134971;27;20475;-62
2022/07/18 12:45:56;;;;;;;2.53;1.70;;;12.30;99.90;;;;;;5140016;27;20485;-63
2022/07/18 12:48:29;;;;;;;2.43;2.20;;;12.40;99.90;;;;;;5139397;27;20489;-62
2022/07/18 12:51:01;;;;;;;2.43;1.83;;;12.40;99.90;;;;;;5153464;27;20573;-62
2022/07/18 12:53:44;;;;;;;1.73;1.63;;;12.30;99.90;;;;;;5135428;27;20973;-62
2022/07/18 12:58:59;;;;;;;1.40;1.30;;;12.30;99.90;;;;;;5136429;27;20461;-63
2022/07/18 13:01:33;;;;;;;3.10;2.10;;;12.30;99.90;;;;;;5133586;27;20470;-64
2022/07/18 13:04:06;;;;;;;1.67;1.47;;;12.40;99.90;;;;;;5146827;27;20463;-63
2022/07/18 13:06:43;;;;;;;4.23;2.13;;;12.30;99.90;;;;;;5144482;27;20445;-63
2022/07/18 13:09:19;;;;;;;3.13;2.10;;;12.40;99.90;;;;;;5147948;27;20559;-63
2022/07/18 13:11:50;;;;;;;2.07;1.50;;;12.50;99.90;;;;;;5144431;27;20460;-63
2022/07/18 13:14:26;;;;;;;2.53;1.90;;;12.60;99.90;;;;;;5127264;27;20487;-62
2022/07/18 13:16:57;;;;;;;4.00;1.87;;;12.50;99.90;;;;;;5122429;27;20464;-62
2022/07/18 13:19:30;;;;;;;3.83;2.10;;;12.60;99.90;;;;;;5126243;27;20530;-62
2022/07/18 13:22:01;;;;;;;2.63;1.57;;;12.70;99.90;;;;;;5125837;27;20460;-61
2022/07/18 13:24:34;;;;;;;2.13;1.93;;;12.90;99.90;;;;;;5139674;27;20520;-62
2022/07/18 13:27:05;;;;;;;1.80;1.70;;;13.00;99.90;;;;;;5133848;27;20459;-62